createdAt,value
2018-11-01T00:00:52.898Z,99.40
2018-11-01T00:01:50.498Z,99.05
2018-11-01T00:02:51.289Z,98.71
2018-11-01T00:03:51.505Z,99.04
2018-11-01T00:04:52.043Z,98.82
2018-11-01T00:07:06.845Z,98.47
2018-11-01T00:08:07.469Z,98.49
2018-11-01T00:09:07.801Z,98.20
2018-11-01T00:10:08.121Z,98.59
2018-11-01T00:11:10.119Z,98.62
2018-11-01T00:12:09.067Z,98.71
2018-11-01T00:13:09.790Z,98.70
2018-11-01T00:14:12.719Z,98.55
2018-11-01T00:15:10.443Z,98.23
2018-11-01T00:16:10.966Z,98.15
2018-11-01T00:17:11.300Z,98.07
2018-11-01T00:18:12.797Z,98.35
2018-11-01T00:19:12.805Z,98.68
2018-11-01T00:20:13.223Z,98.84
2018-11-01T00:21:14.342Z,99.14
2018-11-01T00:22:14.204Z,99.13
2018-11-01T00:23:15.709Z,99.29
2018-11-01T00:24:16.104Z,99.63
2018-11-01T00:25:16.462Z,99.67
2018-11-01T00:26:16.036Z,99.58
2018-11-01T00:27:16.757Z,99.76
2018-11-01T00:28:18.362Z,99.85
2018-11-01T00:29:18.072Z,100.08
2018-11-01T00:30:18.367Z,100.16
2018-11-01T00:31:18.727Z,100.03
2018-11-01T00:32:19.413Z,100.05
2018-11-01T00:33:19.861Z,99.80
2018-11-01T00:34:24.359Z,99.93
2018-11-01T00:35:20.625Z,99.74
2018-11-01T00:36:22.283Z,99.75
2018-11-01T00:37:22.607Z,99.40
2018-11-01T00:38:23.025Z,99.56
2018-11-01T00:39:23.292Z,99.78
2018-11-01T00:40:23.832Z,99.90
2018-11-01T00:41:24.327Z,100.04
2018-11-01T00:42:24.968Z,100.09
2018-11-01T00:43:25.410Z,100.28
2018-11-01T00:44:25.848Z,100.56
2018-11-01T00:45:26.122Z,100.54
2018-11-01T00:46:26.436Z,100.51
2018-11-01T00:47:26.853Z,100.36
2018-11-01T00:48:27.287Z,100.42
2018-11-01T00:49:26.789Z,100.37
2018-11-01T00:50:28.251Z,100.36
2018-11-01T00:51:28.799Z,100.39
2018-11-01T00:52:29.204Z,100.16
2018-11-01T00:53:29.607Z,100.25
2018-11-01T00:54:30.146Z,100.30
2018-11-01T00:55:29.542Z,100.36
2018-11-01T00:56:31.286Z,100.39
2018-11-01T00:57:30.453Z,100.28
2018-11-01T00:58:31.889Z,100.22
2018-11-01T00:59:33.206Z,99.84
2018-11-01T01:00:32.553Z,99.98
2018-11-01T01:01:32.917Z,100.29
2018-11-01T01:02:33.152Z,100.24
2018-11-01T01:03:32.516Z,100.32
2018-11-01T01:04:33.875Z,100.32
2018-11-01T01:05:34.214Z,100.39
2018-11-01T01:06:34.444Z,100.17
2018-11-01T01:07:34.916Z,100.36
2018-11-01T01:08:35.371Z,100.43
2018-11-01T01:10:37.423Z,100.47
2018-11-01T01:11:38.758Z,100.48
2018-11-01T01:12:39.127Z,100.69
2018-11-01T01:14:43.658Z,100.79
2018-11-01T01:16:45.093Z,101.31
2018-11-01T01:17:46.381Z,101.30
2018-11-01T01:18:46.724Z,101.01
2018-11-01T01:19:46.034Z,101.21
2018-11-01T01:20:47.402Z,101.17
2018-11-01T01:21:48.122Z,101.10
2018-11-01T01:22:48.472Z,100.93
2018-11-01T01:23:48.821Z,101.06
2018-11-01T01:24:49.216Z,101.28
2018-11-01T01:25:49.509Z,101.34
2018-11-01T01:26:49.750Z,101.51
2018-11-01T01:27:50.012Z,101.95
2018-11-01T01:28:50.594Z,102.14
2018-11-01T01:29:51.156Z,101.89
2018-11-01T01:30:51.644Z,101.68
2018-11-01T01:31:52.010Z,102.06
2018-11-01T01:32:52.459Z,101.89
2018-11-01T01:33:52.824Z,101.86
2018-11-01T01:34:53.197Z,101.73
2018-11-01T01:35:53.513Z,101.63
2018-11-01T01:36:53.904Z,101.34
2018-11-01T01:37:54.163Z,101.34
2018-11-01T01:38:54.534Z,101.27
2018-11-01T01:39:55.111Z,101.46
2018-11-01T01:40:55.791Z,101.53
2018-11-01T01:41:56.495Z,101.58
2018-11-01T01:42:56.913Z,101.77
2018-11-01T01:43:57.457Z,101.67
2018-11-01T01:44:57.792Z,101.42
2018-11-01T01:45:58.299Z,101.39
2018-11-01T01:46:59.158Z,101.46
2018-11-01T01:47:59.414Z,101.26
2018-11-01T01:48:59.700Z,101.28
2018-11-01T01:50:00.274Z,101.39
2018-11-01T01:51:00.650Z,101.31
2018-11-01T01:52:01.084Z,101.08
2018-11-01T01:53:01.586Z,100.93
2018-11-01T01:54:01.992Z,101.21
2018-11-01T01:55:02.385Z,101.37
2018-11-01T01:56:02.812Z,101.19
2018-11-01T01:57:02.118Z,101.22
2018-11-01T01:58:03.692Z,101.52
2018-11-01T01:59:04.080Z,101.40
2018-11-01T02:00:04.430Z,101.33
2018-11-01T02:01:05.729Z,101.25
2018-11-01T02:02:05.022Z,101.12
2018-11-01T02:02:14.954Z,101.07
2018-11-01T02:03:14.221Z,101.05
2018-11-01T02:04:14.838Z,100.67
2018-11-01T02:05:15.101Z,100.59
2018-11-01T02:06:15.531Z,100.55
2018-11-01T02:07:15.861Z,100.44
2018-11-01T02:08:16.303Z,100.48
2018-11-01T02:09:16.730Z,100.52
2018-11-01T02:10:17.005Z,100.81
2018-11-01T02:11:16.419Z,101.03
2018-11-01T02:12:18.040Z,101.06
2018-11-01T02:13:18.351Z,100.91
2018-11-01T02:14:18.683Z,100.68
2018-11-01T02:15:18.981Z,100.68
2018-11-01T02:16:19.468Z,100.44
2018-11-01T02:17:19.955Z,100.62
2018-11-01T02:18:20.374Z,100.64
2018-11-01T02:19:20.681Z,100.83
2018-11-01T02:20:20.959Z,101.17
2018-11-01T02:21:21.420Z,101.38
2018-11-01T02:22:21.680Z,101.25
2018-11-01T02:23:22.249Z,101.44
2018-11-01T02:24:22.557Z,101.56
2018-11-01T02:25:22.883Z,101.52
2018-11-01T02:26:23.218Z,101.27
2018-11-01T02:27:23.471Z,101.06
2018-11-01T02:28:23.753Z,101.19
2018-11-01T02:29:24.097Z,101.18
2018-11-01T02:30:24.461Z,101.29
2018-11-01T02:31:24.981Z,101.29
2018-11-01T02:32:24.352Z,101.57
2018-11-01T02:33:25.768Z,101.59
2018-11-01T02:34:26.093Z,101.75
2018-11-01T02:35:26.393Z,101.74
2018-11-01T02:36:26.982Z,101.93
2018-11-01T02:37:27.318Z,102.27
2018-11-01T02:38:27.752Z,102.23
2018-11-01T02:39:26.997Z,102.16
2018-11-01T02:40:28.636Z,102.18
2018-11-01T02:41:29.215Z,101.83
2018-11-01T02:42:29.667Z,101.75
2018-11-01T02:43:30.301Z,101.64
2018-11-01T02:44:30.690Z,101.89
2018-11-01T02:45:31.006Z,102.09
2018-11-01T02:46:31.548Z,102.10
2018-11-01T02:47:31.821Z,102.03
2018-11-01T02:47:40.467Z,101.88
2018-11-01T02:48:41.202Z,101.88
2018-11-01T02:49:41.669Z,101.50
2018-11-01T02:50:42.021Z,101.58
2018-11-01T02:51:42.439Z,101.75
2018-11-01T02:52:42.814Z,102.07
2018-11-01T02:53:43.138Z,102.15
2018-11-01T02:54:43.383Z,102.18
2018-11-01T02:55:43.692Z,102.15
2018-11-01T02:56:44.221Z,102.18
2018-11-01T02:57:44.465Z,102.03
2018-11-01T02:58:44.967Z,102.02
2018-11-01T02:59:45.382Z,102.16
2018-11-01T03:00:44.731Z,101.82
2018-11-01T03:01:46.031Z,101.96
2018-11-01T03:02:46.764Z,101.99
2018-11-01T03:03:47.106Z,101.92
2018-11-01T03:04:47.398Z,101.72
2018-11-01T03:05:47.783Z,101.94
2018-11-01T03:06:48.159Z,102.03
2018-11-01T03:07:48.425Z,101.88
2018-11-01T03:08:49.053Z,101.96
2018-11-01T03:09:49.480Z,102.13
2018-11-01T03:10:49.956Z,102.08
2018-11-01T03:11:50.272Z,101.93
2018-11-01T03:12:51.137Z,101.68
2018-11-01T03:13:51.645Z,101.55
2018-11-01T03:14:52.021Z,101.55
2018-11-01T03:15:52.411Z,101.51
2018-11-01T03:16:52.792Z,101.68
2018-11-01T03:17:52.350Z,101.69
2018-11-01T03:18:53.648Z,101.65
2018-11-01T03:19:54.048Z,101.57
2018-11-01T03:20:54.502Z,101.17
2018-11-01T03:21:54.999Z,100.65
2018-11-01T03:22:55.534Z,100.55
2018-11-01T03:23:55.858Z,100.72
2018-11-01T03:24:56.197Z,100.79
2018-11-01T03:25:56.667Z,101.06
2018-11-01T03:26:57.139Z,100.95
2018-11-01T03:27:57.365Z,100.94
2018-11-01T03:28:57.633Z,100.81
2018-11-01T03:29:58.119Z,100.74
2018-11-01T03:30:57.543Z,100.97
2018-11-01T03:31:59.295Z,101.29
2018-11-01T03:32:59.849Z,101.51
2018-11-01T03:34:00.154Z,101.33
2018-11-01T03:34:11.233Z,101.41
2018-11-01T03:35:12.560Z,101.41
2018-11-01T03:36:12.072Z,101.50
2018-11-01T03:37:13.372Z,101.38
2018-11-01T03:38:13.923Z,101.40
2018-11-01T03:39:13.171Z,101.41
2018-11-01T03:40:14.475Z,101.35
2018-11-01T03:41:13.888Z,101.16
2018-11-01T03:42:15.145Z,101.03
2018-11-01T03:43:15.420Z,101.22
2018-11-01T03:44:15.719Z,101.51
2018-11-01T03:45:16.114Z,101.49
2018-11-01T03:46:16.419Z,101.08
2018-11-01T03:47:16.693Z,101.24
2018-11-01T03:48:17.049Z,100.94
2018-11-01T03:49:17.308Z,100.83
2018-11-01T03:50:17.635Z,100.82
2018-11-01T03:51:17.921Z,100.85
2018-11-01T03:52:18.214Z,100.74
2018-11-01T03:53:17.442Z,100.86
2018-11-01T03:54:18.729Z,100.96
2018-11-01T03:55:19.396Z,100.62
2018-11-01T03:56:19.784Z,101.10
2018-11-01T03:57:20.352Z,101.53
2018-11-01T03:58:20.627Z,101.28
2018-11-01T03:59:20.910Z,101.37
2018-11-01T04:00:21.174Z,101.53
2018-11-01T04:01:21.480Z,101.36
2018-11-01T04:02:21.839Z,100.84
2018-11-01T04:03:22.236Z,100.78
2018-11-01T04:04:22.610Z,100.58
2018-11-01T04:05:23.301Z,100.36
2018-11-01T04:06:23.608Z,100.46
2018-11-01T04:07:23.934Z,100.51
2018-11-01T04:08:24.243Z,100.11
2018-11-01T04:09:24.491Z,100.46
2018-11-01T04:10:24.826Z,100.73
2018-11-01T04:11:25.161Z,100.79
2018-11-01T04:12:25.518Z,100.64
2018-11-01T04:13:25.859Z,100.72
2018-11-01T04:14:25.109Z,100.58
2018-11-01T04:15:26.424Z,100.31
2018-11-01T04:16:26.865Z,100.75
2018-11-01T04:17:27.438Z,101.04
2018-11-01T04:18:27.890Z,101.13
2018-11-01T04:19:28.163Z,101.32
2018-11-01T04:20:28.736Z,101.27
2018-11-01T04:21:29.401Z,101.39
2018-11-01T04:22:30.184Z,101.61
2018-11-01T04:22:44.210Z,101.83
2018-11-01T04:23:45.337Z,101.82
2018-11-01T04:24:44.734Z,101.56
2018-11-01T04:25:45.114Z,101.84
2018-11-01T04:26:45.725Z,101.83
2018-11-01T04:27:46.039Z,101.98
2018-11-01T04:28:46.520Z,102.06
2018-11-01T04:29:47.021Z,102.04
2018-11-01T04:30:47.436Z,102.06
2018-11-01T04:31:47.952Z,102.16
2018-11-01T04:32:48.186Z,102.45
2018-11-01T04:33:48.858Z,102.63
2018-11-01T04:34:48.034Z,102.74
2018-11-01T04:35:49.609Z,102.73
2018-11-01T04:36:50.040Z,102.85
2018-11-01T04:37:50.257Z,102.99
2018-11-01T04:38:50.490Z,102.91
2018-11-01T04:39:51.132Z,102.73
2018-11-01T04:40:51.508Z,102.82
2018-11-01T04:41:51.932Z,102.49
2018-11-01T04:42:52.178Z,102.87
2018-11-01T04:43:52.995Z,102.87
2018-11-01T04:44:53.501Z,102.81
2018-11-01T04:45:53.892Z,102.71
2018-11-01T04:46:54.318Z,102.64
2018-11-01T04:47:54.674Z,102.72
2018-11-01T04:48:54.218Z,102.60
2018-11-01T04:49:55.452Z,102.58
2018-11-01T04:50:55.733Z,102.45
2018-11-01T04:51:56.235Z,102.36
2018-11-01T04:52:58.038Z,102.44
2018-11-01T04:53:57.387Z,102.56
2018-11-01T04:54:57.676Z,102.43
2018-11-01T04:55:57.995Z,102.51
2018-11-01T04:56:58.348Z,102.54
2018-11-01T04:57:58.631Z,102.50
2018-11-01T04:58:58.981Z,102.72
2018-11-01T04:59:59.259Z,102.85
2018-11-01T05:00:59.580Z,102.90
2018-11-01T05:02:00.568Z,102.78
2018-11-01T05:03:00.875Z,103.15
2018-11-01T05:04:01.107Z,103.54
2018-11-01T05:05:01.290Z,103.60
2018-11-01T05:06:00.459Z,103.65
2018-11-01T05:07:01.872Z,103.78
2018-11-01T05:08:02.175Z,104.06
2018-11-01T05:09:02.348Z,104.31
2018-11-01T05:10:02.582Z,104.57
2018-11-01T05:10:10.702Z,104.60
2018-11-01T05:11:12.000Z,104.65
2018-11-01T05:12:15.271Z,104.81
2018-11-01T05:13:13.748Z,104.69
2018-11-01T05:14:13.169Z,104.92
2018-11-01T05:15:13.496Z,104.95
2018-11-01T05:16:12.930Z,104.87
2018-11-01T05:17:14.179Z,104.76
2018-11-01T05:18:14.404Z,105.03
2018-11-01T05:19:14.887Z,105.08
2018-11-01T05:20:15.144Z,105.08
2018-11-01T05:21:15.434Z,104.99
2018-11-01T05:22:15.752Z,104.53
2018-11-01T05:23:16.294Z,104.80
2018-11-01T05:24:16.691Z,105.05
2018-11-01T05:25:16.949Z,105.48
2018-11-01T05:26:17.320Z,105.64
2018-11-01T05:27:16.741Z,105.87
2018-11-01T05:28:17.980Z,106.04
2018-11-01T05:29:18.172Z,106.18
2018-11-01T05:30:17.383Z,106.20
2018-11-01T05:31:18.773Z,106.14
2018-11-01T05:32:19.074Z,105.98
2018-11-01T05:33:19.388Z,105.59
2018-11-01T05:34:19.694Z,105.17
2018-11-01T05:35:19.053Z,105.13
2018-11-01T05:36:20.291Z,105.01
2018-11-01T05:37:20.549Z,104.65
2018-11-01T05:38:20.759Z,104.26
2018-11-01T05:39:20.977Z,104.27
2018-11-01T05:40:21.222Z,104.19
2018-11-01T05:41:21.669Z,103.95
2018-11-01T05:42:21.980Z,104.00
2018-11-01T05:43:22.310Z,103.72
2018-11-01T05:44:22.683Z,103.94
2018-11-01T05:45:22.893Z,103.87
2018-11-01T05:46:23.306Z,104.18
2018-11-01T05:47:23.779Z,104.20
2018-11-01T05:48:24.233Z,104.12
2018-11-01T05:49:24.501Z,104.04
2018-11-01T05:50:24.693Z,103.75
2018-11-01T05:51:25.277Z,103.64
2018-11-01T05:52:25.500Z,103.66
2018-11-01T05:53:25.877Z,103.67
2018-11-01T05:54:26.114Z,103.92
2018-11-01T05:55:26.715Z,104.16
2018-11-01T05:56:27.001Z,103.95
2018-11-01T05:57:27.471Z,103.91
2018-11-01T05:58:27.849Z,103.83
2018-11-01T05:59:27.096Z,103.94
2018-11-01T05:59:35.165Z,103.65
2018-11-01T06:00:36.704Z,103.58
2018-11-01T06:01:36.936Z,103.24
2018-11-01T06:02:37.290Z,103.45
2018-11-01T06:03:37.541Z,103.18
2018-11-01T06:04:38.141Z,103.08
2018-11-01T06:05:38.438Z,103.24
2018-11-01T06:06:37.818Z,103.13
2018-11-01T06:07:39.020Z,102.78
2018-11-01T06:08:39.325Z,102.44
2018-11-01T06:09:39.610Z,102.43
2018-11-01T06:10:39.893Z,102.38
2018-11-01T06:11:40.244Z,102.16
2018-11-01T06:12:40.498Z,102.41
2018-11-01T06:13:40.869Z,102.63
2018-11-01T06:14:41.207Z,102.79
2018-11-01T06:15:40.516Z,102.78
2018-11-01T06:16:41.875Z,103.06
2018-11-01T06:17:42.249Z,103.29
2018-11-01T06:18:42.546Z,103.35
2018-11-01T06:19:42.802Z,103.23
2018-11-01T06:20:43.073Z,103.28
2018-11-01T06:21:42.260Z,103.39
2018-11-01T06:22:43.567Z,103.63
2018-11-01T06:23:43.885Z,103.78
2018-11-01T06:24:43.307Z,103.60
2018-11-01T06:25:44.639Z,103.83
2018-11-01T06:26:44.917Z,103.88
2018-11-01T06:27:45.215Z,103.64
2018-11-01T06:28:45.559Z,103.50
2018-11-01T06:29:44.697Z,103.61
2018-11-01T06:30:45.946Z,103.46
2018-11-01T06:31:46.292Z,103.38
2018-11-01T06:32:46.531Z,103.44
2018-11-01T06:33:46.809Z,103.04
2018-11-01T06:34:47.241Z,103.18
2018-11-01T06:35:46.539Z,103.04
2018-11-01T06:36:47.866Z,102.92
2018-11-01T06:37:48.234Z,102.87
2018-11-01T06:38:48.504Z,102.86
2018-11-01T06:39:48.882Z,102.71
2018-11-01T06:40:49.211Z,102.61
2018-11-01T06:41:49.539Z,102.37
2018-11-01T06:42:49.825Z,102.40
2018-11-01T06:43:50.073Z,102.59
2018-11-01T06:44:50.542Z,102.40
2018-11-01T06:45:49.805Z,102.24
2018-11-01T06:46:51.426Z,102.40
2018-11-01T06:47:51.724Z,102.56
2018-11-01T06:48:52.036Z,102.62
2018-11-01T06:49:52.374Z,102.66
2018-11-01T06:50:00.845Z,102.32
2018-11-01T06:51:02.245Z,102.32
2018-11-01T06:52:02.560Z,102.19
2018-11-01T06:53:02.788Z,102.44
2018-11-01T06:54:03.126Z,102.71
2018-11-01T06:55:03.455Z,102.45
2018-11-01T06:56:04.433Z,102.46
2018-11-01T06:57:04.803Z,102.53
2018-11-01T06:58:04.094Z,102.58
2018-11-01T06:59:04.774Z,102.76
2018-11-01T07:00:04.861Z,102.81
2018-11-01T07:01:06.225Z,102.82
2018-11-01T07:02:06.678Z,102.88
2018-11-01T07:03:07.094Z,103.11
2018-11-01T07:04:07.333Z,103.18
2018-11-01T07:05:07.821Z,103.10
2018-11-01T07:06:08.217Z,102.95
2018-11-01T07:07:08.491Z,103.05
2018-11-01T07:08:08.828Z,102.99
2018-11-01T07:09:09.112Z,102.94
2018-11-01T07:10:09.568Z,102.86
2018-11-01T07:11:09.865Z,103.01
2018-11-01T07:12:10.382Z,102.81
2018-11-01T07:13:10.933Z,102.80
2018-11-01T07:14:11.307Z,102.77
2018-11-01T07:15:11.540Z,102.69
2018-11-01T07:16:11.910Z,102.57
2018-11-01T07:17:12.378Z,102.56
2018-11-01T07:18:11.607Z,102.67
2018-11-01T07:19:13.003Z,102.47
2018-11-01T07:20:13.285Z,102.18
2018-11-01T07:21:13.561Z,102.13
2018-11-01T07:22:13.974Z,102.23
2018-11-01T07:23:14.337Z,102.08
2018-11-01T07:24:14.580Z,101.95
2018-11-01T07:25:14.939Z,101.60
2018-11-01T07:26:15.451Z,101.61
2018-11-01T07:27:14.613Z,101.41
2018-11-01T07:28:16.025Z,101.16
2018-11-01T07:29:16.399Z,101.18
2018-11-01T07:30:15.631Z,101.08
2018-11-01T07:31:16.926Z,100.75
2018-11-01T07:33:48.172Z,101.04
2018-11-01T07:34:49.456Z,101.03
2018-11-01T07:35:49.888Z,101.04
2018-11-01T07:36:50.238Z,100.88
2018-11-01T07:37:50.589Z,100.60
2018-11-01T07:39:21.595Z,100.53
2018-11-01T07:40:22.274Z,100.55
2018-11-01T07:41:22.499Z,100.31
2018-11-01T07:42:24.025Z,100.02
2018-11-01T07:43:24.269Z,100.11
2018-11-01T07:44:24.526Z,100.02
2018-11-01T07:45:24.855Z,99.77
2018-11-01T07:46:25.496Z,99.82
2018-11-01T07:47:25.752Z,99.69
2018-11-01T07:48:26.101Z,99.71
2018-11-01T07:49:25.714Z,99.50
2018-11-01T07:50:26.960Z,99.54
2018-11-01T07:51:27.299Z,99.57
2018-11-01T07:52:27.934Z,99.62
2018-11-01T07:53:28.469Z,99.38
2018-11-01T07:54:29.003Z,99.36
2018-11-01T07:55:29.480Z,99.35
2018-11-01T07:56:29.834Z,99.54
2018-11-01T07:57:30.678Z,99.50
2018-11-01T07:58:31.492Z,99.38
2018-11-01T07:59:30.722Z,99.26
2018-11-01T08:00:31.957Z,99.31
2018-11-01T08:01:32.727Z,98.98
2018-11-01T08:02:33.164Z,99.43
2018-11-01T08:03:33.665Z,99.12
2018-11-01T08:04:33.966Z,98.89
2018-11-01T08:05:33.259Z,98.59
2018-11-01T08:06:34.609Z,98.68
2018-11-01T08:07:34.836Z,98.86
2018-11-01T08:08:35.157Z,98.97
2018-11-01T08:09:35.592Z,98.94
2018-11-01T08:10:35.922Z,99.01
2018-11-01T08:11:36.474Z,98.88
2018-11-01T08:12:36.212Z,98.93
2018-11-01T08:13:37.647Z,98.74
2018-11-01T08:14:37.944Z,98.48
2018-11-01T08:15:38.556Z,98.35
2018-11-01T08:16:38.243Z,98.04
2018-11-01T08:17:38.655Z,97.83
2018-11-01T08:18:40.300Z,98.04
2018-11-01T08:19:40.648Z,97.97
2018-11-01T08:20:40.470Z,98.07
2018-11-01T08:21:40.838Z,98.32
2018-11-01T08:22:42.163Z,98.34
2018-11-01T08:23:42.980Z,98.35
2018-11-01T08:24:43.299Z,98.39
2018-11-01T08:25:43.679Z,98.62
2018-11-01T08:26:44.333Z,98.63
2018-11-01T08:27:45.035Z,98.71
2018-11-01T08:28:45.737Z,98.56
2018-11-01T08:29:46.322Z,98.81
2018-11-01T08:30:46.867Z,98.83
2018-11-01T08:30:55.967Z,99.18
2018-11-01T08:31:57.332Z,99.16
2018-11-01T08:32:56.561Z,99.11
2018-11-01T08:33:57.225Z,99.17
2018-11-01T08:34:57.574Z,98.97
2018-11-01T08:35:57.877Z,98.98
2018-11-01T08:36:57.943Z,99.02
2018-11-01T08:37:58.441Z,98.67
2018-11-01T08:38:58.761Z,98.77
2018-11-01T08:39:59.380Z,99.16
2018-11-01T08:40:59.248Z,98.93
2018-11-01T08:41:59.674Z,98.87
2018-11-01T08:43:01.049Z,99.14
2018-11-01T08:44:01.327Z,99.17
2018-11-01T08:45:02.861Z,99.18
2018-11-01T08:46:02.322Z,99.40
2018-11-01T08:47:02.739Z,99.44
2018-11-01T08:48:03.002Z,99.56
2018-11-01T08:49:03.375Z,99.79
2018-11-01T08:50:03.808Z,99.84
2018-11-01T08:51:03.030Z,99.97
2018-11-01T08:52:04.416Z,100.17
2018-11-01T08:53:04.856Z,100.44
2018-11-01T08:54:05.308Z,100.41
2018-11-01T08:55:06.265Z,100.58
2018-11-01T08:56:05.858Z,100.45
2018-11-01T08:57:06.252Z,100.38
2018-11-01T08:58:06.707Z,100.53
2018-11-01T08:59:07.185Z,100.51
2018-11-01T09:00:07.688Z,100.34
2018-11-01T09:01:08.005Z,100.19
2018-11-01T09:02:08.462Z,100.05
2018-11-01T09:03:13.606Z,100.02
2018-11-01T09:04:09.078Z,99.93
2018-11-01T09:05:08.809Z,100.00
2018-11-01T09:06:10.505Z,99.79
2018-11-01T09:07:09.680Z,100.04
2018-11-01T09:08:11.299Z,100.03
2018-11-01T09:09:10.440Z,99.77
2018-11-01T09:10:11.776Z,99.33
2018-11-01T09:11:12.365Z,99.35
2018-11-01T09:12:12.710Z,99.24
2018-11-01T09:13:13.168Z,99.22
2018-11-01T09:14:12.606Z,99.25
2018-11-01T09:15:12.832Z,99.13
2018-11-01T09:16:13.351Z,98.97
2018-11-01T09:17:14.424Z,99.01
2018-11-01T09:18:14.818Z,98.38
2018-11-01T09:19:14.287Z,98.43
2018-11-01T09:20:14.512Z,98.42
2018-11-01T09:21:15.796Z,98.37
2018-11-01T09:22:16.236Z,98.30
2018-11-01T09:23:16.616Z,98.37
2018-11-01T09:24:17.003Z,98.45
2018-11-01T09:24:25.631Z,98.64
2018-11-01T09:25:27.071Z,98.63
2018-11-01T09:26:27.042Z,98.52
2018-11-01T09:27:27.437Z,98.68
2018-11-01T09:28:27.745Z,98.71
2018-11-01T09:29:28.404Z,98.58
2018-11-01T09:30:28.749Z,98.39
2018-11-01T09:31:29.509Z,98.21
2018-11-01T09:32:29.915Z,98.34
2018-11-01T09:33:30.410Z,98.52
2018-11-01T09:34:30.904Z,97.97
2018-11-01T09:35:31.502Z,98.01
2018-11-01T09:36:31.973Z,98.02
2018-11-01T09:37:32.343Z,98.03
2018-11-01T09:38:31.746Z,97.73
2018-11-01T09:39:33.148Z,97.78
2018-11-01T09:40:33.984Z,97.53
2018-11-01T09:41:34.634Z,97.79
2018-11-01T09:42:35.218Z,97.67
2018-11-01T09:43:35.596Z,97.77
2018-11-01T09:44:35.988Z,97.67
2018-11-01T09:45:36.287Z,97.78
2018-11-01T09:46:37.228Z,98.13
2018-11-01T09:47:36.687Z,97.98
2018-11-01T09:48:36.576Z,98.23
2018-11-01T09:49:37.936Z,98.13
2018-11-01T09:50:38.616Z,97.91
2018-11-01T09:51:38.938Z,98.36
2018-11-01T09:52:39.373Z,98.15
2018-11-01T09:53:39.649Z,98.48
2018-11-01T09:54:40.118Z,98.67
2018-11-01T09:55:40.719Z,98.76
2018-11-01T09:56:39.998Z,98.59
2018-11-01T09:57:41.266Z,98.22
2018-11-01T09:58:41.686Z,98.33
2018-11-01T09:59:42.036Z,98.23
2018-11-01T10:00:42.381Z,97.97
2018-11-01T10:01:42.793Z,97.85
2018-11-01T10:02:43.073Z,96.99
2018-11-01T10:03:43.513Z,96.92
2018-11-01T10:04:43.798Z,96.90
2018-11-01T10:05:44.248Z,96.83
2018-11-01T10:06:44.486Z,96.94
2018-11-01T10:07:43.921Z,97.09
2018-11-01T10:08:45.235Z,96.94
2018-11-01T10:09:45.652Z,97.01
2018-11-01T10:10:45.964Z,97.01
2018-11-01T10:11:46.108Z,96.97
2018-11-01T10:11:57.402Z,96.86
2018-11-01T10:12:59.072Z,96.84
2018-11-01T10:13:59.429Z,96.46
2018-11-01T10:14:59.816Z,96.15
2018-11-01T10:15:59.308Z,96.11
2018-11-01T10:16:59.816Z,95.95
2018-11-01T10:18:00.259Z,95.40
2018-11-01T10:19:00.113Z,94.82
2018-11-01T10:20:01.619Z,94.39
2018-11-01T10:21:01.975Z,94.36
2018-11-01T10:22:02.319Z,94.21
2018-11-01T10:23:02.112Z,94.17
2018-11-01T10:24:02.514Z,93.94
2018-11-01T10:25:03.930Z,94.09
2018-11-01T10:26:03.316Z,94.23
2018-11-01T10:27:04.796Z,94.51
2018-11-01T10:28:05.201Z,94.37
2018-11-01T10:29:05.550Z,94.37
2018-11-01T10:30:05.888Z,94.43
2018-11-01T10:31:06.249Z,93.98
2018-11-01T10:32:06.538Z,93.69
2018-11-01T10:33:06.947Z,93.53
2018-11-01T10:34:06.206Z,93.83
2018-11-01T10:35:06.881Z,93.75
2018-11-01T10:36:08.161Z,93.56
2018-11-01T10:37:09.686Z,93.73
2018-11-01T10:38:09.039Z,93.85
2018-11-01T10:39:09.283Z,93.78
2018-11-01T10:40:09.807Z,93.80
2018-11-01T10:41:10.078Z,93.72
2018-11-01T10:42:10.387Z,93.79
2018-11-01T10:43:10.761Z,93.53
2018-11-01T10:44:11.099Z,93.32
2018-11-01T10:45:11.415Z,93.62
2018-11-01T10:46:11.753Z,93.55
2018-11-01T10:47:12.113Z,93.85
2018-11-01T10:48:12.459Z,93.86
2018-11-01T10:49:13.078Z,93.90
2018-11-01T10:50:13.378Z,93.99
2018-11-01T10:51:13.926Z,94.03
2018-11-01T10:52:14.189Z,94.00
2018-11-01T10:53:14.472Z,93.96
2018-11-01T10:54:14.805Z,93.29
2018-11-01T10:55:14.043Z,93.81
2018-11-01T10:56:15.561Z,93.92
2018-11-01T10:57:15.849Z,93.97
2018-11-01T10:58:16.157Z,93.91
2018-11-01T10:59:16.537Z,93.82
2018-11-01T11:00:17.285Z,93.94
2018-11-01T11:01:16.379Z,93.86
2018-11-01T11:02:16.679Z,93.29
2018-11-01T11:03:17.010Z,93.01
2018-11-01T11:04:18.348Z,92.94
2018-11-01T11:05:18.646Z,92.88
2018-11-01T11:06:18.980Z,93.03
2018-11-01T11:07:18.328Z,93.17
2018-11-01T11:07:26.877Z,92.99
2018-11-01T11:08:27.468Z,92.98
2018-11-01T11:09:27.746Z,93.20
2018-11-01T11:10:28.100Z,93.03
2018-11-01T11:11:28.466Z,92.89
2018-11-01T11:12:29.999Z,92.96
2018-11-01T11:13:29.600Z,93.10
2018-11-01T11:14:30.004Z,93.37
2018-11-01T11:15:29.384Z,93.31
2018-11-01T11:16:30.575Z,93.19
2018-11-01T11:17:30.876Z,93.01
2018-11-01T11:18:31.293Z,93.06
2018-11-01T11:19:31.546Z,93.08
2018-11-01T11:20:32.183Z,93.06
2018-11-01T11:21:31.478Z,93.04
2018-11-01T11:22:32.957Z,92.50
2018-11-01T11:23:33.240Z,92.76
2018-11-01T11:24:33.488Z,92.82
2018-11-01T11:25:34.233Z,92.75
2018-11-01T11:26:34.524Z,92.29
2018-11-01T11:27:34.930Z,92.55
2018-11-01T11:28:33.981Z,92.55
2018-11-01T11:29:35.553Z,92.49
2018-11-01T11:30:36.600Z,92.40
2018-11-01T11:31:35.907Z,92.40
2018-11-01T11:32:37.252Z,92.40
2018-11-01T11:33:37.642Z,92.33
2018-11-01T11:34:38.067Z,91.92
2018-11-01T11:35:38.211Z,92.04
2018-11-01T11:36:37.450Z,91.87
2018-11-01T11:37:38.759Z,91.78
2018-11-01T11:38:39.116Z,91.89
2018-11-01T11:39:39.570Z,91.95
2018-11-01T11:40:38.687Z,92.03
2018-11-01T11:41:40.062Z,91.99
2018-11-01T11:42:40.706Z,91.98
2018-11-01T11:43:40.788Z,91.95
2018-11-01T11:44:40.955Z,91.88
2018-11-01T11:45:41.149Z,91.76
2018-11-01T11:46:41.496Z,91.84
2018-11-01T11:47:41.834Z,91.76
2018-11-01T11:48:42.193Z,91.81
2018-11-01T11:49:42.680Z,91.81
2018-11-01T11:50:42.025Z,91.84
2018-11-01T11:51:43.374Z,91.78
2018-11-01T11:52:43.845Z,91.93
2018-11-01T11:53:44.281Z,92.00
2018-11-01T11:54:44.932Z,92.04
2018-11-01T11:54:57.084Z,92.04
2018-11-01T11:55:57.387Z,92.05
2018-11-01T11:56:57.716Z,92.07
2018-11-01T11:57:57.434Z,92.01
2018-11-01T11:58:58.740Z,91.95
2018-11-01T11:59:59.218Z,91.89
2018-11-01T12:00:59.467Z,91.77
2018-11-01T12:01:59.779Z,91.61
2018-11-01T12:03:00.098Z,91.32
2018-11-01T12:04:00.885Z,91.31
2018-11-01T12:05:00.966Z,90.68
2018-11-01T12:06:01.445Z,90.75
2018-11-01T12:07:01.027Z,91.01
2018-11-01T12:08:02.614Z,90.77
2018-11-01T12:09:03.207Z,90.93
2018-11-01T12:10:03.871Z,90.64
2018-11-01T12:11:04.434Z,90.92
2018-11-01T12:12:04.801Z,91.12
2018-11-01T12:13:05.064Z,91.33
2018-11-01T12:14:05.539Z,91.06
2018-11-01T12:15:04.832Z,90.94
2018-11-01T12:16:06.146Z,90.06
2018-11-01T12:17:06.706Z,89.87
2018-11-01T12:18:07.328Z,90.29
2018-11-01T12:19:07.676Z,90.96
2018-11-01T12:20:08.176Z,91.06
2018-11-01T12:21:08.520Z,91.01
2018-11-01T12:22:09.050Z,90.87
2018-11-01T12:23:09.497Z,91.08
2018-11-01T12:24:10.214Z,91.19
2018-11-01T12:25:10.409Z,91.27
2018-11-01T12:26:10.972Z,91.16
2018-11-01T12:27:12.306Z,91.50
2018-11-01T12:28:11.680Z,91.79
2018-11-01T12:29:13.528Z,91.98
2018-11-01T12:30:12.895Z,92.04
2018-11-01T12:31:13.350Z,92.12
2018-11-01T12:32:13.750Z,92.19
2018-11-01T12:33:14.097Z,92.18
2018-11-01T12:34:14.667Z,92.19
2018-11-01T12:35:15.238Z,92.18
2018-11-01T12:36:14.830Z,92.08
2018-11-01T12:37:15.381Z,91.97
2018-11-01T12:38:16.915Z,92.00
2018-11-01T12:39:17.916Z,91.99
2018-11-01T12:40:18.283Z,92.01